Terminal Aerodrome Forecast
Issued by NWS

Home | Current Version | Previous Version | Text Only | Print | Product List | Glossary On
Versions: 1 2 3 4 5 6 7 8 9 10 11 12 13 14 15 16 17 18 19
867
FTUS43 KDLH 251431 AAA
TAFHYR
TAF AMD
KHYR 251431Z 2515/2612 VRB03KT 5SM -SHRA BR BKN005 OVC010
     FM251800 VRB03KT P6SM VCSH OVC015
     FM260000 VRB03KT 4SM -RA BR OVC008
     FM260500 VRB03KT 3SM -RA BR BKN004=

USA.gov is the U.S. government's official web portal to all federal, state and local government web resources and services.